sensor_id;sensor_type;location;lat;lon;timestamp;pressure;altitude;pressure_sealevel;temperature;humidity
10115;BME280;5097;43.260;27.812;2023-02-15T00:02:02;101354.47;;;4.08;64.71
10115;BME280;5097;43.260;27.812;2023-02-15T00:04:46;101307.50;;;3.92;64.10
10115;BME280;5097;43.260;27.812;2023-02-15T00:07:30;101311.06;;;3.79;64.71
10115;BME280;5097;43.260;27.812;2023-02-15T00:10:15;101324.78;;;4.18;64.11
10115;BME280;5097;43.260;27.812;2023-02-15T00:13:00;101356.16;;;4.18;64.69
10115;BME280;5097;43.260;27.812;2023-02-15T00:15:45;101307.53;;;3.89;64.85
10115;BME280;5097;43.260;27.812;2023-02-15T00:18:29;101347.56;;;3.97;65.74
10115;BME280;5097;43.260;27.812;2023-02-15T00:21:14;101346.69;;;3.98;65.38
10115;BME280;5097;43.260;27.812;2023-02-15T00:23:59;101319.88;;;3.62;65.53
10115;BME280;5097;43.260;27.812;2023-02-15T00:26:44;101318.00;;;3.86;65.46
10115;BME280;5097;43.260;27.812;2023-02-15T00:29:28;101288.53;;;3.56;65.76
10115;BME280;5097;43.260;27.812;2023-02-15T00:32:14;101294.47;;;3.86;64.69
10115;BME280;5097;43.260;27.812;2023-02-15T00:34:58;101302.50;;;3.52;66.16
10115;BME280;5097;43.260;27.812;2023-02-15T00:37:42;101294.72;;;3.46;65.88
10115;BME280;5097;43.260;27.812;2023-02-15T00:40:26;101341.66;;;3.66;66.33
10115;BME280;5097;43.260;27.812;2023-02-15T00:43:10;101307.88;;;3.24;66.41
10115;BME280;5097;43.260;27.812;2023-02-15T00:45:57;101345.91;;;3.81;66.20
10115;BME280;5097;43.260;27.812;2023-02-15T00:48:44;101319.81;;;3.75;65.54
10115;BME280;5097;43.260;27.812;2023-02-15T00:51:28;101302.56;;;3.41;66.22
10115;BME280;5097;43.260;27.812;2023-02-15T00:54:12;101309.56;;;3.38;66.40
10115;BME280;5097;43.260;27.812;2023-02-15T00:56:56;101289.50;;;3.44;65.98
10115;BME280;5097;43.260;27.812;2023-02-15T00:59:40;101295.75;;;3.11;66.93
10115;BME280;5097;43.260;27.812;2023-02-15T01:02:24;101299.16;;;3.28;66.91
10115;BME280;5097;43.260;27.812;2023-02-15T01:05:09;101335.63;;;3.50;67.05
10115;BME280;5097;43.260;27.812;2023-02-15T01:07:53;101301.69;;;3.36;66.42
10115;BME280;5097;43.260;27.812;2023-02-15T01:10:37;101283.47;;;3.25;67.31
10115;BME280;5097;43.260;27.812;2023-02-15T01:13:21;101262.69;;;3.00;67.74
10115;BME280;5097;43.260;27.812;2023-02-15T01:16:06;101272.28;;;2.92;68.12
10115;BME280;5097;43.260;27.812;2023-02-15T01:18:50;101290.50;;;3.09;67.97
10115;BME280;5097;43.260;27.812;2023-02-15T01:21:36;101290.53;;;2.98;67.90
10115;BME280;5097;43.260;27.812;2023-02-15T01:24:20;101307.91;;;3.02;67.95
10115;BME280;5097;43.260;27.812;2023-02-15T01:27:04;101327.06;;;3.08;68.12
10115;BME280;5097;43.260;27.812;2023-02-15T01:29:48;101285.34;;;2.86;68.45
10115;BME280;5097;43.260;27.812;2023-02-15T01:32:32;101324.47;;;3.01;68.79
10115;BME280;5097;43.260;27.812;2023-02-15T01:35:16;101330.56;;;3.02;69.41
10115;BME280;5097;43.260;27.812;2023-02-15T01:38:02;101287.13;;;2.68;68.87
10115;BME280;5097;43.260;27.812;2023-02-15T01:40:46;101326.25;;;2.87;69.67
10115;BME280;5097;43.260;27.812;2023-02-15T01:43:40;101298.41;;;2.77;69.27
10115;BME280;5097;43.260;27.812;2023-02-15T01:46:27;101298.41;;;2.88;68.77
10115;BME280;5097;43.260;27.812;2023-02-15T01:49:17;101282.75;;;2.83;68.71
10115;BME280;5097;43.260;27.812;2023-02-15T01:52:03;101293.25;;;2.61;69.28
10115;BME280;5097;43.260;27.812;2023-02-15T01:54:49;101319.28;;;2.80;69.21
10115;BME280;5097;43.260;27.812;2023-02-15T01:57:34;101285.41;;;2.58;69.99
10115;BME280;5097;43.260;27.812;2023-02-15T02:00:19;101266.28;;;2.53;69.83
10115;BME280;5097;43.260;27.812;2023-02-15T02:03:04;101320.19;;;2.79;69.94
10115;BME280;5097;43.260;27.812;2023-02-15T02:05:48;101316.69;;;2.83;69.82
10115;BME280;5097;43.260;27.812;2023-02-15T02:08:33;101329.69;;;2.89;69.59
10115;BME280;5097;43.260;27.812;2023-02-15T02:11:19;101307.13;;;2.77;69.86
10115;BME280;5097;43.260;27.812;2023-02-15T02:14:03;101341.84;;;3.02;68.91
10115;BME280;5097;43.260;27.812;2023-02-15T02:16:52;101322.78;;;2.80;70.00
10115;BME280;5097;43.260;27.812;2023-02-15T02:20:12;101290.66;;;2.37;70.62
10115;BME280;5097;43.260;27.812;2023-02-15T02:23:18;101312.34;;;2.76;70.37
10115;BME280;5097;43.260;27.812;2023-02-15T02:33:24;101306.28;;;2.35;71.15
10115;BME280;5097;43.260;27.812;2023-02-15T02:36:15;101288.91;;;2.11;72.15
10115;BME280;5097;43.260;27.812;2023-02-15T02:39:14;101296.75;;;2.39;70.89
10115;BME280;5097;43.260;27.812;2023-02-15T02:42:05;101336.72;;;2.25;72.67
10115;BME280;5097;43.260;27.812;2023-02-15T02:44:52;101288.03;;;2.04;72.87
10115;BME280;5097;43.260;27.812;2023-02-15T02:47:41;101300.22;;;2.17;72.25
10115;BME280;5097;43.260;27.812;2023-02-15T02:50:29;101294.13;;;1.98;73.01
10115;BME280;5097;43.260;27.812;2023-02-15T02:53:14;101315.88;;;2.14;72.72
10115;BME280;5097;43.260;27.812;2023-02-15T02:56:02;101315.00;;;2.20;72.64
10115;BME280;5097;43.260;27.812;2023-02-15T02:58:54;101364.53;;;2.74;71.64
10115;BME280;5097;43.260;27.812;2023-02-15T03:01:42;101354.97;;;2.53;71.93
10115;BME280;5097;43.260;27.812;2023-02-15T03:04:31;101316.72;;;2.24;72.21
10115;BME280;5097;43.260;27.812;2023-02-15T03:07:21;101308.00;;;2.04;72.54
10115;BME280;5097;43.260;27.812;2023-02-15T03:10:07;101341.06;;;2.31;72.90
10115;BME280;5097;43.260;27.812;2023-02-15T03:12:52;101349.78;;;2.36;73.44
10115;BME280;5097;43.260;27.812;2023-02-15T03:15:38;101360.19;;;2.33;73.28
10115;BME280;5097;43.260;27.812;2023-02-15T03:18:44;101350.63;;;2.44;72.62
10115;BME280;5097;43.260;27.812;2023-02-15T03:21:40;101354.97;;;2.17;73.83
10115;BME280;5097;43.260;27.812;2023-02-15T03:24:35;101317.59;;;2.00;73.93
10115;BME280;5097;43.260;27.812;2023-02-15T03:27:24;101315.84;;;1.97;74.03
10115;BME280;5097;43.260;27.812;2023-02-15T03:30:11;101376.72;;;2.41;73.41
10115;BME280;5097;43.260;27.812;2023-02-15T03:32:58;101358.44;;;2.37;73.42
10115;BME280;5097;43.260;27.812;2023-02-15T03:35:49;101353.25;;;2.41;73.53
10115;BME280;5097;43.260;27.812;2023-02-15T03:38:40;101314.09;;;1.98;74.09
10115;BME280;5097;43.260;27.812;2023-02-15T03:41:33;101277.59;;;1.89;72.94
10115;BME280;5097;43.260;27.812;2023-02-15T03:44:23;101368.88;;;2.58;73.25
10115;BME280;5097;43.260;27.812;2023-02-15T03:47:13;101370.63;;;2.45;73.63
10115;BME280;5097;43.260;27.812;2023-02-15T03:50:02;101360.19;;;2.31;73.83
10115;BME280;5097;43.260;27.812;2023-02-15T03:53:11;101374.09;;;2.27;74.41
10115;BME280;5097;43.260;27.812;2023-02-15T03:55:57;101365.41;;;2.34;73.72
10115;BME280;5097;43.260;27.812;2023-02-15T03:58:43;101378.44;;;2.44;73.54
10115;BME280;5097;43.260;27.812;2023-02-15T04:01:50;101354.09;;;2.25;74.31
10115;BME280;5097;43.260;27.812;2023-02-15T04:04:45;101381.06;;;2.25;74.40
10115;BME280;5097;43.260;27.812;2023-02-15T04:07:29;101376.69;;;2.40;74.19
10115;BME280;5097;43.260;27.812;2023-02-15T04:10:13;101377.56;;;2.26;74.28
10115;BME280;5097;43.260;27.812;2023-02-15T04:13:14;101378.44;;;2.14;74.65
10115;BME280;5097;43.260;27.812;2023-02-15T04:16:00;101380.16;;;2.23;74.19
10115;BME280;5097;43.260;27.812;2023-02-15T04:18:46;101362.78;;;2.21;74.46
10115;BME280;5097;43.260;27.812;2023-02-15T04:21:47;101378.41;;;2.21;74.58
10115;BME280;5097;43.260;27.812;2023-02-15T04:24:49;101381.94;;;2.41;73.85
10115;BME280;5097;43.260;27.812;2023-02-15T04:27:51;101388.88;;;2.14;74.17
10115;BME280;5097;43.260;27.812;2023-02-15T04:30:36;101369.69;;;2.06;74.32
10115;BME280;5097;43.260;27.812;2023-02-15T04:33:21;101402.78;;;2.21;74.46
10115;BME280;5097;43.260;27.812;2023-02-15T04:36:05;101400.16;;;2.27;73.46
10115;BME280;5097;43.260;27.812;2023-02-15T04:38:49;101404.50;;;2.28;73.27
10115;BME280;5097;43.260;27.812;2023-02-15T04:41:33;101414.06;;;2.23;73.95
10115;BME280;5097;43.260;27.812;2023-02-15T04:44:17;101401.88;;;2.22;74.15
10115;BME280;5097;43.260;27.812;2023-02-15T04:47:00;101389.72;;;2.12;73.28
10115;BME280;5097;43.260;27.812;2023-02-15T04:49:46;101369.69;;;1.97;73.97
10115;BME280;5097;43.260;27.812;2023-02-15T04:52:29;101420.13;;;2.21;73.28
10115;BME280;5097;43.260;27.812;2023-02-15T04:55:13;101419.22;;;2.05;74.39
10115;BME280;5097;43.260;27.812;2023-02-15T04:57:57;101403.53;;;1.86;74.41
10115;BME280;5097;43.260;27.812;2023-02-15T05:00:41;101427.06;;;2.08;74.55
10115;BME280;5097;43.260;27.812;2023-02-15T05:03:25;101431.41;;;2.06;74.34
10115;BME280;5097;43.260;27.812;2023-02-15T05:06:10;101427.09;;;2.18;73.61
10115;BME280;5097;43.260;27.812;2023-02-15T05:08:54;101448.81;;;2.16;73.94
10115;BME280;5097;43.260;27.812;2023-02-15T05:11:41;101393.09;;;1.83;74.37
10115;BME280;5097;43.260;27.812;2023-02-15T05:14:25;101445.31;;;2.14;73.67
10115;BME280;5097;43.260;27.812;2023-02-15T05:17:09;101439.22;;;2.01;74.84
10115;BME280;5097;43.260;27.812;2023-02-15T05:19:54;101446.19;;;2.10;74.35
10115;BME280;5097;43.260;27.812;2023-02-15T05:22:39;101449.69;;;2.30;73.80
10115;BME280;5097;43.260;27.812;2023-02-15T05:25:24;101427.06;;;2.08;73.68
10115;BME280;5097;43.260;27.812;2023-02-15T05:28:27;101447.03;;;2.06;74.74
10115;BME280;5097;43.260;27.812;2023-02-15T05:31:12;101457.50;;;2.18;73.87
10115;BME280;5097;43.260;27.812;2023-02-15T05:33:57;101426.19;;;2.06;73.90
10115;BME280;5097;43.260;27.812;2023-02-15T05:36:41;101464.50;;;2.31;73.64
10115;BME280;5097;43.260;27.812;2023-02-15T05:39:26;101478.41;;;2.40;73.54
10115;BME280;5097;43.260;27.812;2023-02-15T05:42:10;101480.13;;;2.30;73.81
10115;BME280;5097;43.260;27.812;2023-02-15T05:44:54;101480.16;;;2.44;73.60
10115;BME280;5097;43.260;27.812;2023-02-15T05:47:38;101483.69;;;2.52;73.07
10115;BME280;5097;43.260;27.812;2023-02-15T05:50:22;101461.03;;;2.40;72.50
10115;BME280;5097;43.260;27.812;2023-02-15T05:53:05;101477.56;;;2.42;72.92
10115;BME280;5097;43.260;27.812;2023-02-15T05:55:51;101501.09;;;2.70;72.64
10115;BME280;5097;43.260;27.812;2023-02-15T05:58:37;101502.81;;;2.66;73.21
10115;BME280;5097;43.260;27.812;2023-02-15T06:01:21;101509.75;;;2.55;73.03
10115;BME280;5097;43.260;27.812;2023-02-15T06:04:05;101515.03;;;2.74;72.41
10115;BME280;5097;43.260;27.812;2023-02-15T06:06:49;101499.34;;;2.61;72.66
10115;BME280;5097;43.260;27.812;2023-02-15T06:09:33;101474.97;;;2.50;72.51
10115;BME280;5097;43.260;27.812;2023-02-15T06:12:18;101522.81;;;2.52;73.58
10115;BME280;5097;43.260;27.812;2023-02-15T06:15:02;101471.50;;;2.48;72.43
10115;BME280;5097;43.260;27.812;2023-02-15T06:17:46;101506.25;;;2.44;73.28
10115;BME280;5097;43.260;27.812;2023-02-15T06:20:30;101525.47;;;2.89;72.63
10115;BME280;5097;43.260;27.812;2023-02-15T06:23:15;101528.94;;;2.70;72.63
10115;BME280;5097;43.260;27.812;2023-02-15T06:25:59;101525.47;;;2.77;73.05
10115;BME280;5097;43.260;27.812;2023-02-15T06:28:44;101512.44;;;3.03;71.78
10115;BME280;5097;43.260;27.812;2023-02-15T06:31:28;101525.47;;;2.98;71.45
10115;BME280;5097;43.260;27.812;2023-02-15T06:34:12;101511.56;;;3.01;71.75
10115;BME280;5097;43.260;27.812;2023-02-15T06:36:56;101504.59;;;2.83;71.97
10115;BME280;5097;43.260;27.812;2023-02-15T06:39:40;101528.09;;;3.01;71.67
10115;BME280;5097;43.260;27.812;2023-02-15T06:42:25;101535.06;;;3.23;71.16
10115;BME280;5097;43.260;27.812;2023-02-15T06:45:10;101531.53;;;3.56;70.48
10115;BME280;5097;43.260;27.812;2023-02-15T06:47:54;101537.66;;;3.43;70.13
10115;BME280;5097;43.260;27.812;2023-02-15T06:50:39;101543.75;;;3.48;70.37
10115;BME280;5097;43.260;27.812;2023-02-15T06:53:23;101539.41;;;3.58;69.69
10115;BME280;5097;43.260;27.812;2023-02-15T06:56:07;101515.03;;;3.29;70.06
10115;BME280;5097;43.260;27.812;2023-02-15T06:58:51;101530.69;;;3.52;69.71
10115;BME280;5097;43.260;27.812;2023-02-15T07:01:37;101536.69;;;3.99;68.34
10115;BME280;5097;43.260;27.812;2023-02-15T07:04:21;101514.16;;;3.29;69.71
10115;BME280;5097;43.260;27.812;2023-02-15T07:07:08;101559.41;;;3.57;69.32
10115;BME280;5097;43.260;27.812;2023-02-15T07:09:52;101560.31;;;3.42;69.61
10115;BME280;5097;43.260;27.812;2023-02-15T07:12:36;101564.66;;;3.56;69.35
10115;BME280;5097;43.260;27.812;2023-02-15T07:15:28;101562.03;;;3.46;69.71
10115;BME280;5097;43.260;27.812;2023-02-15T07:18:13;101520.25;;;3.35;68.94
10115;BME280;5097;43.260;27.812;2023-02-15T07:20:57;101579.47;;;3.55;69.25
10115;BME280;5097;43.260;27.812;2023-02-15T07:23:41;101522.88;;;3.51;68.35
10115;BME280;5097;43.260;27.812;2023-02-15T07:26:25;101528.91;;;3.73;67.82
10115;BME280;5097;43.260;27.812;2023-02-15T07:29:10;101565.22;;;4.55;66.44
10115;BME280;5097;43.260;27.812;2023-02-15T07:31:54;101566.31;;;4.05;66.45
10115;BME280;5097;43.260;27.812;2023-02-15T07:34:41;101534.06;;;3.96;66.95
10115;BME280;5097;43.260;27.812;2023-02-15T07:37:26;101522.72;;;3.99;66.67
10115;BME280;5097;43.260;27.812;2023-02-15T07:40:11;101516.72;;;3.67;67.40
10115;BME280;5097;43.260;27.812;2023-02-15T07:42:57;101585.47;;;4.08;66.17
10115;BME280;5097;43.260;27.812;2023-02-15T07:45:42;101580.09;;;4.51;65.71
10115;BME280;5097;43.260;27.812;2023-02-15T07:48:26;101555.63;;;4.57;65.49
10115;BME280;5097;43.260;27.812;2023-02-15T07:51:13;101516.53;;;4.22;65.10
10115;BME280;5097;43.260;27.812;2023-02-15T07:54:01;101536.75;;;3.72;66.50
10115;BME280;5097;43.260;27.812;2023-02-15T07:56:45;101564.56;;;3.97;66.37
10115;BME280;5097;43.260;27.812;2023-02-15T07:59:29;101570.63;;;4.12;66.18
10115;BME280;5097;43.260;27.812;2023-02-15T08:02:13;101568.91;;;4.08;66.51
10115;BME280;5097;43.260;27.812;2023-02-15T08:04:59;101523.66;;;3.84;65.56
10115;BME280;5097;43.260;27.812;2023-02-15T08:07:45;101579.28;;;4.32;65.18
10115;BME280;5097;43.260;27.812;2023-02-15T08:10:30;101522.75;;;3.96;65.26
10115;BME280;5097;43.260;27.812;2023-02-15T08:13:28;101534.16;;;3.68;66.38
10115;BME280;5097;43.260;27.812;2023-02-15T08:16:11;101561.03;;;4.18;65.53
10115;BME280;5097;43.260;27.812;2023-02-15T08:18:56;101554.03;;;4.19;65.46
10115;BME280;5097;43.260;27.812;2023-02-15T08:21:43;101568.72;;;4.51;65.24
10115;BME280;5097;43.260;27.812;2023-02-15T08:24:32;101512.91;;;4.47;64.26
10115;BME280;5097;43.260;27.812;2023-02-15T08:27:16;101528.72;;;4.30;63.65
10115;BME280;5097;43.260;27.812;2023-02-15T08:30:00;101565.19;;;4.64;63.36
10115;BME280;5097;43.260;27.812;2023-02-15T08:32:44;101527.63;;;4.70;62.76
10115;BME280;5097;43.260;27.812;2023-02-15T08:35:28;101531.72;;;5.10;61.05
10115;BME280;5097;43.260;27.812;2023-02-15T08:38:13;101531.97;;;4.73;61.92
10115;BME280;5097;43.260;27.812;2023-02-15T08:41:09;101582.34;;;5.09;61.30
10115;BME280;5097;43.260;27.812;2023-02-15T08:43:54;101536.00;;;5.22;60.62
10115;BME280;5097;43.260;27.812;2023-02-15T08:46:40;101587.47;;;5.27;60.32
10115;BME280;5097;43.260;27.812;2023-02-15T08:49:24;101585.66;;;5.39;59.63
10115;BME280;5097;43.260;27.812;2023-02-15T08:52:08;101573.56;;;5.19;60.37
10115;BME280;5097;43.260;27.812;2023-02-15T08:54:52;101552.84;;;4.82;60.36
10115;BME280;5097;43.260;27.812;2023-02-15T08:57:37;101573.59;;;5.16;60.05
10115;BME280;5097;43.260;27.812;2023-02-15T09:00:27;101565.66;;;5.24;59.95
10115;BME280;5097;43.260;27.812;2023-02-15T09:03:11;101535.00;;;5.36;59.65
10115;BME280;5097;43.260;27.812;2023-02-15T09:05:59;101582.22;;;5.27;59.48
10115;BME280;5097;43.260;27.812;2023-02-15T09:08:43;101570.00;;;5.26;58.88
10115;BME280;5097;43.260;27.812;2023-02-15T09:11:28;101573.69;;;5.00;60.07
10115;BME280;5097;43.260;27.812;2023-02-15T09:14:15;101561.31;;;5.21;59.11
10115;BME280;5097;43.260;27.812;2023-02-15T09:16:59;101560.25;;;5.47;59.94
10115;BME280;5097;43.260;27.812;2023-02-15T09:19:43;101568.75;;;5.69;57.82
10115;BME280;5097;43.260;27.812;2023-02-15T09:22:27;101556.69;;;5.52;58.13
10115;BME280;5097;43.260;27.812;2023-02-15T09:25:12;101549.59;;;5.62;58.45
10115;BME280;5097;43.260;27.812;2023-02-15T09:27:56;101544.50;;;5.47;57.59
10115;BME280;5097;43.260;27.812;2023-02-15T09:30:41;101547.97;;;5.49;56.98
10115;BME280;5097;43.260;27.812;2023-02-15T09:33:25;101553.72;;;5.88;56.35
10115;BME280;5097;43.260;27.812;2023-02-15T09:36:14;101558.00;;;6.01;56.11
10115;BME280;5097;43.260;27.812;2023-02-15T09:39:01;101568.72;;;5.70;55.80
10115;BME280;5097;43.260;27.812;2023-02-15T09:42:11;101564.22;;;5.85;55.45
10115;BME280;5097;43.260;27.812;2023-02-15T09:45:16;101550.91;;;6.08;55.38
10115;BME280;5097;43.260;27.812;2023-02-15T09:54:33;101537.09;;;5.89;55.13
10115;BME280;5097;43.260;27.812;2023-02-15T09:57:24;101557.78;;;6.17;53.63
10115;BME280;5097;43.260;27.812;2023-02-15T10:00:18;101544.72;;;6.11;53.07
10115;BME280;5097;43.260;27.812;2023-02-15T10:03:15;101532.13;;;6.41;52.99
10115;BME280;5097;43.260;27.812;2023-02-15T10:06:15;101547.91;;;6.37;53.71
10115;BME280;5097;43.260;27.812;2023-02-15T10:09:25;101504.69;;;5.98;54.57
10115;BME280;5097;43.260;27.812;2023-02-15T10:12:26;101548.00;;;6.31;54.10
10115;BME280;5097;43.260;27.812;2023-02-15T10:15:36;101562.09;;;6.23;52.83
10115;BME280;5097;43.260;27.812;2023-02-15T10:18:45;101541.88;;;6.31;53.59
10115;BME280;5097;43.260;27.812;2023-02-15T10:21:43;101513.38;;;6.67;52.64
10115;BME280;5097;43.260;27.812;2023-02-15T10:24:52;101543.81;;;6.82;53.47
10115;BME280;5097;43.260;27.812;2023-02-15T10:27:45;101534.25;;;6.76;53.41
10115;BME280;5097;43.260;27.812;2023-02-15T10:30:38;101519.94;;;6.36;54.01
10115;BME280;5097;43.260;27.812;2023-02-15T10:33:38;101544.22;;;6.51;53.30
10115;BME280;5097;43.260;27.812;2023-02-15T10:36:36;101544.44;;;6.35;54.17
10115;BME280;5097;43.260;27.812;2023-02-15T10:39:28;101540.28;;;6.83;52.44
10115;BME280;5097;43.260;27.812;2023-02-15T10:42:22;101493.69;;;6.36;53.82
10115;BME280;5097;43.260;27.812;2023-02-15T10:45:19;101520.78;;;6.99;53.05
10115;BME280;5097;43.260;27.812;2023-02-15T10:48:18;101520.31;;;7.27;52.47
10115;BME280;5097;43.260;27.812;2023-02-15T10:51:08;101520.28;;;6.74;52.60
10115;BME280;5097;43.260;27.812;2023-02-15T10:54:13;101495.19;;;7.11;52.06
10115;BME280;5097;43.260;27.812;2023-02-15T10:57:04;101510.13;;;7.09;52.55
10115;BME280;5097;43.260;27.812;2023-02-15T11:00:08;101523.09;;;6.60;53.24
10115;BME280;5097;43.260;27.812;2023-02-15T11:03:08;101510.19;;;7.04;52.65
10115;BME280;5097;43.260;27.812;2023-02-15T11:06:02;101528.28;;;6.66;52.35
10115;BME280;5097;43.260;27.812;2023-02-15T11:08:49;101513.44;;;6.64;53.16
10115;BME280;5097;43.260;27.812;2023-02-15T11:11:37;101508.88;;;6.77;52.66
10115;BME280;5097;43.260;27.812;2023-02-15T11:14:31;101533.13;;;6.94;53.09
10115;BME280;5097;43.260;27.812;2023-02-15T11:17:22;101512.81;;;7.04;50.97
10115;BME280;5097;43.260;27.812;2023-02-15T11:20:16;101511.53;;;7.28;50.99
10115;BME280;5097;43.260;27.812;2023-02-15T11:23:01;101514.50;;;7.58;50.18
10115;BME280;5097;43.260;27.812;2023-02-15T11:25:52;101484.84;;;6.44;51.14
10115;BME280;5097;43.260;27.812;2023-02-15T11:28:43;101492.69;;;6.45;52.05
10115;BME280;5097;43.260;27.812;2023-02-15T11:31:37;101491.88;;;6.40;51.58
10115;BME280;5097;43.260;27.812;2023-02-15T11:34:29;101512.47;;;6.69;50.68
10115;BME280;5097;43.260;27.812;2023-02-15T11:37:18;101536.50;;;7.02;50.26
10115;BME280;5097;43.260;27.812;2023-02-15T11:40:16;101512.25;;;7.40;50.49
10115;BME280;5097;43.260;27.812;2023-02-15T11:43:04;101502.94;;;7.20;49.78
10115;BME280;5097;43.260;27.812;2023-02-15T11:45:51;101498.19;;;6.87;49.70
10115;BME280;5097;43.260;27.812;2023-02-15T11:48:37;101503.50;;;7.37;49.05
10115;BME280;5097;43.260;27.812;2023-02-15T11:51:22;101511.69;;;7.19;49.43
10115;BME280;5097;43.260;27.812;2023-02-15T11:54:08;101479.91;;;7.34;48.89
10115;BME280;5097;43.260;27.812;2023-02-15T11:56:52;101495.88;;;7.70;47.53
10115;BME280;5097;43.260;27.812;2023-02-15T11:59:37;101466.59;;;7.89;47.61
10115;BME280;5097;43.260;27.812;2023-02-15T12:02:25;101491.16;;;7.88;47.44
10115;BME280;5097;43.260;27.812;2023-02-15T12:05:15;101487.09;;;7.23;49.35
10115;BME280;5097;43.260;27.812;2023-02-15T12:08:12;101483.31;;;6.86;49.13
10115;BME280;5097;43.260;27.812;2023-02-15T12:11:00;101497.25;;;6.92;49.74
10115;BME280;5097;43.260;27.812;2023-02-15T12:13:57;101485.63;;;7.07;49.76
10115;BME280;5097;43.260;27.812;2023-02-15T12:16:43;101486.91;;;6.82;49.36
10115;BME280;5097;43.260;27.812;2023-02-15T12:19:32;101491.47;;;6.69;49.69
10115;BME280;5097;43.260;27.812;2023-02-15T12:22:22;101483.34;;;6.85;49.04
10115;BME280;5097;43.260;27.812;2023-02-15T12:25:21;101465.06;;;6.79;50.39
10115;BME280;5097;43.260;27.812;2023-02-15T12:28:22;101469.84;;;6.52;49.77
10115;BME280;5097;43.260;27.812;2023-02-15T12:31:10;101481.09;;;6.62;49.84
10115;BME280;5097;43.260;27.812;2023-02-15T12:34:09;101464.84;;;6.35;50.55
10115;BME280;5097;43.260;27.812;2023-02-15T12:36:59;101445.69;;;6.30;51.34
10115;BME280;5097;43.260;27.812;2023-02-15T12:39:53;101431.56;;;6.37;50.60
10115;BME280;5097;43.260;27.812;2023-02-15T12:42:42;101473.00;;;7.27;49.65
10115;BME280;5097;43.260;27.812;2023-02-15T12:45:29;101426.47;;;7.78;49.13
10115;BME280;5097;43.260;27.812;2023-02-15T12:48:15;101412.56;;;7.71;48.06
10115;BME280;5097;43.260;27.812;2023-02-15T12:51:08;101419.22;;;7.89;48.77
10115;BME280;5097;43.260;27.812;2023-02-15T12:53:54;101460.88;;;8.11;48.00
10115;BME280;5097;43.260;27.812;2023-02-15T12:56:38;101464.97;;;8.24;48.14
10115;BME280;5097;43.260;27.812;2023-02-15T12:59:22;101462.47;;;8.59;47.24
10115;BME280;5097;43.260;27.812;2023-02-15T13:02:14;101422.63;;;7.50;48.65
10115;BME280;5097;43.260;27.812;2023-02-15T13:05:16;101461.78;;;8.10;48.49
10115;BME280;5097;43.260;27.812;2023-02-15T13:08:10;101417.63;;;8.22;47.09
10115;BME280;5097;43.260;27.812;2023-02-15T13:10:57;101436.06;;;8.21;45.99
10115;BME280;5097;43.260;27.812;2023-02-15T13:13:51;101456.28;;;7.77;48.10
10115;BME280;5097;43.260;27.812;2023-02-15T13:16:38;101474.03;;;8.11;46.26
10115;BME280;5097;43.260;27.812;2023-02-15T13:19:29;101461.38;;;7.86;47.92
10115;BME280;5097;43.260;27.812;2023-02-15T13:22:18;101463.47;;;8.12;48.26
10115;BME280;5097;43.260;27.812;2023-02-15T13:25:09;101458.16;;;8.14;47.10
10115;BME280;5097;43.260;27.812;2023-02-15T13:27:58;101449.75;;;8.38;47.38
10115;BME280;5097;43.260;27.812;2023-02-15T13:30:45;101417.44;;;8.69;45.97
10115;BME280;5097;43.260;27.812;2023-02-15T13:33:33;101463.94;;;8.31;47.64
10115;BME280;5097;43.260;27.812;2023-02-15T13:36:23;101413.44;;;7.73;47.34
10115;BME280;5097;43.260;27.812;2023-02-15T13:39:22;101412.50;;;7.76;47.82
10115;BME280;5097;43.260;27.812;2023-02-15T13:42:17;101420.63;;;8.05;48.52
10115;BME280;5097;43.260;27.812;2023-02-15T13:45:15;101451.06;;;8.58;47.30
10115;BME280;5097;43.260;27.812;2023-02-15T13:48:12;101444.06;;;8.57;47.37
10115;BME280;5097;43.260;27.812;2023-02-15T13:51:07;101413.00;;;8.32;46.49
10115;BME280;5097;43.260;27.812;2023-02-15T13:54:15;101452.38;;;8.78;46.30
10115;BME280;5097;43.260;27.812;2023-02-15T13:57:22;101405.03;;;8.35;47.32
10115;BME280;5097;43.260;27.812;2023-02-15T14:00:17;101405.59;;;8.50;46.41
10115;BME280;5097;43.260;27.812;2023-02-15T14:06:49;101427.56;;;8.49;43.96
10115;BME280;5097;43.260;27.812;2023-02-15T14:09:45;101447.22;;;8.71;44.99
10115;BME280;5097;43.260;27.812;2023-02-15T14:12:41;101451.69;;;9.05;45.30
10115;BME280;5097;43.260;27.812;2023-02-15T14:15:34;101407.34;;;8.12;46.66
10115;BME280;5097;43.260;27.812;2023-02-15T14:18:25;101430.16;;;8.11;45.52
10115;BME280;5097;43.260;27.812;2023-02-15T14:21:19;101411.00;;;7.62;42.75
10115;BME280;5097;43.260;27.812;2023-02-15T14:24:16;101406.38;;;7.74;43.88
10115;BME280;5097;43.260;27.812;2023-02-15T14:27:13;101414.28;;;7.74;43.56
10115;BME280;5097;43.260;27.812;2023-02-15T14:30:04;101429.63;;;7.50;43.43
10115;BME280;5097;43.260;27.812;2023-02-15T14:33:01;101420.56;;;7.21;42.45
10115;BME280;5097;43.260;27.812;2023-02-15T14:35:48;101436.19;;;7.29;42.43
10115;BME280;5097;43.260;27.812;2023-02-15T14:38:48;101422.50;;;7.10;43.10
10115;BME280;5097;43.260;27.812;2023-02-15T14:41:38;101473.72;;;7.37;42.63
10115;BME280;5097;43.260;27.812;2023-02-15T14:44:28;101463.41;;;7.26;43.26
10115;BME280;5097;43.260;27.812;2023-02-15T14:47:18;101458.44;;;7.58;42.90
10115;BME280;5097;43.260;27.812;2023-02-15T14:53:48;101463.97;;;7.44;42.82
10115;BME280;5097;43.260;27.812;2023-02-15T14:56:32;101418.88;;;7.17;43.47
10115;BME280;5097;43.260;27.812;2023-02-15T14:59:18;101443.69;;;7.50;43.62
10115;BME280;5097;43.260;27.812;2023-02-15T15:02:10;101451.56;;;7.02;44.49
10115;BME280;5097;43.260;27.812;2023-02-15T15:05:02;101453.25;;;7.04;44.41
10115;BME280;5097;43.260;27.812;2023-02-15T15:07:51;101452.78;;;7.31;44.61
10115;BME280;5097;43.260;27.812;2023-02-15T15:10:47;101464.16;;;7.31;44.33
10115;BME280;5097;43.260;27.812;2023-02-15T15:13:37;101429.56;;;7.08;44.56
10115;BME280;5097;43.260;27.812;2023-02-15T15:16:31;101421.81;;;7.00;45.08